Chapel Lakes, Florida
Current Conditions -  °F | °C
As of 3:53 AM on Sunday 26 Oct 2014 (Local Time) from KOPF Reporting Station
Clear Clear  
Wind Chill: 71°   Ceiling: Unl
Heat Index: 71°   Visibility: 10mi
Dew Point: 64°   Wind: 10mph
Humidity: 78%   Direction: 340°NNW
Pressure: 29.91"   Gusts: NA
Location:  26.0368°N, 80.6206°W
Report Text: KOPF 260753Z AUTO 34009KT 10SM CLR 22/18 A2991 RMK AO2 SLP128 T02170178 $
Loading
Personal Weather Stations






























Interactive Weather Map
Tropical Storm Tracking
New forecast layout! Learn more

10-Day Weather Forecast

Advertisements
Track Severe Weather on mobile